Avoca, New York
Current Conditions -  °F | °C
As of 7:26 PM on Thursday 18 Dec 2014 (Local Time) from KDSV Reporting Station
Overcast Overcast  
Wind Chill: 25°   Ceiling: 1500
Heat Index: 32°   Visibility: 10mi
Dew Point: 28°   Wind: 8mph
Humidity: 85%   Direction: 330°NNW
Pressure: 30.07"   Gusts: NA
Location:  42.41°N, 77.42°W
Report Text: KDSV 190026Z AUTO 33007KT 10SM BKN015 BKN028 OVC048 00/M02 A3007 RMK AO2 T00001022
Loading
Personal Weather Stations






























Interactive Weather Map New forecast layout! Learn more

10-Day Weather Forecast

Advertisements
Track Severe Weather on mobile